Time,TemperatureF,DewpointF,PressureIn,WindDirection,WindDirectionDegrees,WindSpeedMPH,WindSpeedGustMPH,Humidity,HourlyPrecipIn,Conditions,Clouds,dailyrainin,SoftwareType,DateUTC
2013-01-24 00:05:00,59.5,56.3,30.16,SSW,202,5.0,5.0,89,0.00,,,0.00,Wunderground v.1.15,2013-01-24 06:05:00,
2013-01-24 00:10:00,59.6,56.4,30.16,SSW,209,4.0,4.0,89,0.00,,,0.00,Wunderground v.1.15,2013-01-24 06:10:00,
2013-01-24 00:20:00,59.6,56.4,30.16,South,191,5.0,5.0,89,0.00,,,0.00,Wunderground v.1.15,2013-01-24 06:20:00,
2013-01-24 00:25:00,59.5,56.3,30.16,SSW,199,5.0,5.0,89,0.00,,,0.00,Wunderground v.1.15,2013-01-24 06:25:00,
2013-01-24 00:35:00,59.3,56.4,30.16,SSW,196,4.0,7.0,90,0.00,,,0.00,Wunderground v.1.15,2013-01-24 06:35:00,
2013-01-24 00:40:00,59.3,56.7,30.15,SSW,203,4.0,4.0,91,0.00,,,0.00,Wunderground v.1.15,2013-01-24 06:40:00,
2013-01-24 00:50:00,59.3,56.7,30.15,SSW,210,5.0,5.0,91,0.00,,,0.00,Wunderground v.1.15,2013-01-24 06:50:00,
2013-01-24 00:55:00,59.3,57.0,30.16,SSW,210,5.0,5.0,92,0.00,,,0.00,Wunderground v.1.15,2013-01-24 06:55:00,
2013-01-24 01:05:00,59.3,57.0,30.15,SSW,213,5.0,6.0,92,0.00,,,0.00,Wunderground v.1.15,2013-01-24 07:05:00,
2013-01-24 01:10:00,59.3,57.0,30.15,SSW,209,6.0,13.0,92,0.00,,,0.00,Wunderground v.1.15,2013-01-24 07:10:00,
2013-01-24 01:20:00,59.3,57.0,30.15,SSW,203,4.0,5.0,92,0.00,,,0.00,Wunderground v.1.15,2013-01-24 07:20:00,
2013-01-24 01:25:00,59.3,57.0,30.15,SSW,203,4.0,7.0,92,0.00,,,0.00,Wunderground v.1.15,2013-01-24 07:25:00,
2013-01-24 01:35:00,59.3,57.3,30.15,South,171,5.0,5.0,93,0.00,,,0.00,Wunderground v.1.15,2013-01-24 07:35:00,
2013-01-24 01:40:00,59.3,57.3,30.15,SSW,209,6.0,6.0,93,0.00,,,0.00,Wunderground v.1.15,2013-01-24 07:40:00,
2013-01-24 01:50:00,59.2,57.2,30.15,SW,219,5.0,5.0,93,0.00,,,0.00,Wunderground v.1.15,2013-01-24 07:50:00,
2013-01-24 01:55:00,59.2,57.2,30.15,SW,220,5.0,8.0,93,0.00,,,0.00,Wunderground v.1.15,2013-01-24 07:55:00,
2013-01-24 02:05:00,59.0,57.0,30.15,SSW,209,5.0,8.0,93,0.00,,,0.00,Wunderground v.1.15,2013-01-24 08:05:00,
2013-01-24 02:10:00,59.0,57.3,30.15,SSW,212,6.0,8.0,94,0.00,,,0.00,Wunderground v.1.15,2013-01-24 08:10:00,
2013-01-24 02:20:00,59.0,57.3,30.15,SSW,203,5.0,6.0,94,0.00,,,0.00,Wunderground v.1.15,2013-01-24 08:20:00,
2013-01-24 02:25:00,59.0,57.3,30.15,SSW,205,6.0,11.0,94,0.00,,,0.00,Wunderground v.1.15,2013-01-24 08:25:00,
2013-01-24 02:35:00,59.0,57.3,30.15,SW,234,6.0,7.0,94,0.00,,,0.00,Wunderground v.1.15,2013-01-24 08:35:00,
2013-01-24 02:40:00,59.0,57.3,30.15,SSW,192,6.0,7.0,94,0.00,,,0.00,Wunderground v.1.15,2013-01-24 08:40:00,
2013-01-24 02:50:00,59.2,57.8,30.16,SSW,200,7.0,8.0,95,0.00,,,0.00,Wunderground v.1.15,2013-01-24 08:50:00,
2013-01-24 02:55:00,59.3,57.9,30.16,SSW,206,9.0,9.0,95,0.00,,,0.00,Wunderground v.1.15,2013-01-24 08:55:00,
2013-01-24 03:05:00,59.3,57.9,30.16,SSW,206,5.0,11.0,95,0.00,,,0.00,Wunderground v.1.15,2013-01-24 09:05:00,
2013-01-24 03:10:00,59.3,57.9,30.16,SW,224,6.0,7.0,95,0.00,,,0.00,Wunderground v.1.15,2013-01-24 09:10:00,
2013-01-24 03:20:00,59.5,58.1,30.15,SW,223,7.0,7.0,95,0.00,,,0.00,Wunderground v.1.15,2013-01-24 09:20:00,
2013-01-24 03:25:00,59.5,58.1,30.15,SSW,202,6.0,7.0,95,0.00,,,0.00,Wunderground v.1.15,2013-01-24 09:25:00,
2013-01-24 03:35:00,59.6,58.2,30.15,SSW,203,5.0,7.0,95,0.00,,,0.00,Wunderground v.1.15,2013-01-24 09:35:00,
2013-01-24 03:40:00,59.6,58.2,30.15,South,172,6.0,7.0,95,0.00,,,0.00,Wunderground v.1.15,2013-01-24 09:40:00,
2013-01-24 03:50:00,59.8,58.4,30.15,SSW,192,6.0,6.0,95,0.00,,,0.00,Wunderground v.1.15,2013-01-24 09:50:00,
2013-01-24 03:55:00,59.8,58.4,30.15,SSW,208,5.0,12.0,95,0.00,,,0.00,Wunderground v.1.15,2013-01-24 09:55:00,
2013-01-24 04:05:00,59.8,58.4,30.15,SSW,192,5.0,5.0,95,0.00,,,0.00,Wunderground v.1.15,2013-01-24 10:05:00,
2013-01-24 04:10:00,59.9,58.5,30.15,WSW,240,5.0,5.0,95,0.00,,,0.00,Wunderground v.1.15,2013-01-24 10:10:00,
2013-01-24 04:20:00,59.9,58.5,30.15,SSW,195,6.0,10.0,95,0.00,,,0.00,Wunderground v.1.15,2013-01-24 10:20:00,
2013-01-24 04:25:00,59.9,58.5,30.15,SW,222,6.0,10.0,95,0.00,,,0.00,Wunderground v.1.15,2013-01-24 10:25:00,
2013-01-24 04:35:00,60.1,58.7,30.15,SSW,213,5.0,8.0,95,0.00,,,0.00,Wunderground v.1.15,2013-01-24 10:35:00,
2013-01-24 04:40:00,59.9,58.5,30.15,SW,233,4.0,4.0,95,0.00,,,0.00,Wunderground v.1.15,2013-01-24 10:40:00,
2013-01-24 04:50:00,60.1,58.7,30.15,SSW,195,5.0,11.0,95,0.00,,,0.00,Wunderground v.1.15,2013-01-24 10:50:00,
2013-01-24 04:55:00,60.1,58.7,30.15,South,189,5.0,11.0,95,0.00,,,0.00,Wunderground v.1.15,2013-01-24 10:55:00,
2013-01-24 05:05:00,60.1,58.7,30.15,SW,215,6.0,6.0,95,0.00,,,0.00,Wunderground v.1.15,2013-01-24 11:05:00,
2013-01-24 05:10:00,60.1,58.7,30.15,SSW,212,6.0,7.0,95,0.00,,,0.00,Wunderground v.1.15,2013-01-24 11:10:00,
2013-01-24 05:20:00,60.1,58.7,30.16,SSW,206,6.0,7.0,95,0.00,,,0.00,Wunderground v.1.15,2013-01-24 11:20:00,
2013-01-24 05:25:00,60.2,58.8,30.16,SSW,212,6.0,7.0,95,0.00,,,0.00,Wunderground v.1.15,2013-01-24 11:25:00,
2013-01-24 05:35:00,60.4,59.0,30.16,SSW,212,5.0,5.0,95,0.00,,,0.00,Wunderground v.1.15,2013-01-24 11:35:00,
2013-01-24 05:40:00,60.4,59.0,30.16,SW,220,6.0,6.0,95,0.00,,,0.00,Wunderground v.1.15,2013-01-24 11:40:00,
2013-01-24 05:50:00,60.5,59.4,30.16,South,171,5.0,5.0,96,0.00,,,0.00,Wunderground v.1.15,2013-01-24 11:50:00,
2013-01-24 05:55:00,60.7,59.6,30.16,SSW,208,7.0,7.0,96,0.00,,,0.00,Wunderground v.1.15,2013-01-24 11:55:00,
2013-01-24 06:05:00,60.9,59.8,30.17,SSW,200,7.0,11.0,96,0.00,,,0.00,Wunderground v.1.15,2013-01-24 12:05:00,
2013-01-24 06:10:00,60.9,59.8,30.17,SW,227,6.0,6.0,96,0.00,,,0.00,Wunderground v.1.15,2013-01-24 12:10:00,
2013-01-24 06:20:00,60.9,59.5,30.17,SSW,208,5.0,6.0,95,0.00,,,0.00,Wunderground v.1.15,2013-01-24 12:20:00,
2013-01-24 06:25:00,61.0,59.6,30.17,SSW,210,5.0,6.0,95,0.00,,,0.00,Wunderground v.1.15,2013-01-24 12:25:00,
2013-01-24 06:35:00,61.0,59.6,30.17,SW,223,7.0,7.0,95,0.00,,,0.00,Wunderground v.1.15,2013-01-24 12:35:00,
2013-01-24 06:40:00,61.0,59.6,30.17,SSW,213,8.0,8.0,95,0.00,,,0.00,Wunderground v.1.15,2013-01-24 12:40:00,
2013-01-24 06:50:00,61.0,59.3,30.17,SSW,205,7.0,7.0,94,0.00,,,0.00,Wunderground v.1.15,2013-01-24 12:50:00,
2013-01-24 06:55:00,60.9,59.2,30.17,SSW,213,7.0,7.0,94,0.00,,,0.00,Wunderground v.1.15,2013-01-24 12:55:00,
2013-01-24 07:05:00,60.4,58.4,30.18,SSW,212,6.0,7.0,93,0.00,,,0.00,Wunderground v.1.15,2013-01-24 13:05:00,
2013-01-24 07:10:00,60.2,58.2,30.18,SSW,205,5.0,5.0,93,0.00,,,0.00,Wunderground v.1.15,2013-01-24 13:10:00,
2013-01-24 07:20:00,60.1,58.1,30.18,WSW,240,5.0,5.0,93,0.00,,,0.00,Wunderground v.1.15,2013-01-24 13:20:00,
2013-01-24 07:25:00,60.1,58.1,30.18,SSW,203,6.0,6.0,93,0.00,,,0.00,Wunderground v.1.15,2013-01-24 13:25:00,
2013-01-24 07:35:00,60.1,58.1,30.18,SSW,206,6.0,7.0,93,0.00,,,0.00,Wunderground v.1.15,2013-01-24 13:35:00,
2013-01-24 07:40:00,59.9,57.9,30.18,SSW,206,5.0,6.0,93,0.00,,,0.00,Wunderground v.1.15,2013-01-24 13:40:00,
2013-01-24 07:50:00,59.9,57.9,30.18,SSW,210,4.0,5.0,93,0.00,,,0.00,Wunderground v.1.15,2013-01-24 13:50:00,
2013-01-24 07:55:00,59.9,57.9,30.18,SW,230,5.0,5.0,93,0.00,,,0.00,Wunderground v.1.15,2013-01-24 13:55:00,
2013-01-24 08:05:00,59.9,57.9,30.19,SW,230,5.0,7.0,93,0.00,,,0.00,Wunderground v.1.15,2013-01-24 14:05:00,
2013-01-24 08:10:00,60.1,58.1,30.19,SW,226,5.0,10.0,93,0.00,,,0.00,Wunderground v.1.15,2013-01-24 14:10:00,
2013-01-24 08:20:00,60.2,58.2,30.19,SW,220,6.0,6.0,93,0.00,,,0.00,Wunderground v.1.15,2013-01-24 14:20:00,
2013-01-24 08:25:00,60.4,58.4,30.19,SSW,206,6.0,6.0,93,0.00,,,0.00,Wunderground v.1.15,2013-01-24 14:25:00,
2013-01-24 08:35:00,60.7,58.7,30.19,SW,234,5.0,10.0,93,0.00,,,0.00,Wunderground v.1.15,2013-01-24 14:35:00,
2013-01-24 08:40:00,61.0,59.0,30.19,SW,219,5.0,7.0,93,0.00,,,0.00,Wunderground v.1.15,2013-01-24 14:40:00,
2013-01-24 08:50:00,61.3,59.0,30.19,SSW,202,6.0,7.0,92,0.00,,,0.00,Wunderground v.1.15,2013-01-24 14:50:00,
2013-01-24 08:55:00,61.6,58.9,30.19,SW,219,5.0,7.0,91,0.00,,,0.00,Wunderground v.1.15,2013-01-24 14:55:00,
2013-01-24 09:05:00,62.1,59.1,30.19,SW,222,5.0,5.0,90,0.00,,,0.00,Wunderground v.1.15,2013-01-24 15:05:00,
2013-01-24 09:10:00,62.4,59.1,30.19,SSW,200,5.0,5.0,89,0.00,,,0.00,Wunderground v.1.15,2013-01-24 15:10:00,
2013-01-24 09:20:00,62.9,59.3,30.19,SSW,205,5.0,5.0,88,0.00,,,0.00,Wunderground v.1.15,2013-01-24 15:20:00,
2013-01-24 09:25:00,63.2,59.3,30.19,SSW,195,5.0,12.0,87,0.00,,,0.00,Wunderground v.1.15,2013-01-24 15:25:00,
2013-01-24 09:35:00,63.7,59.4,30.19,SSW,210,4.0,13.0,86,0.00,,,0.00,Wunderground v.1.15,2013-01-24 15:35:00,
2013-01-24 09:40:00,63.9,59.6,30.19,SW,219,5.0,6.0,86,0.00,,,0.00,Wunderground v.1.15,2013-01-24 15:40:00,
2013-01-24 09:50:00,64.3,59.7,30.20,SSW,212,6.0,6.0,85,0.00,,,0.00,Wunderground v.1.15,2013-01-24 15:50:00,
2013-01-24 09:55:00,64.8,60.2,30.20,SW,217,5.0,6.0,85,0.00,,,0.00,Wunderground v.1.15,2013-01-24 15:55:00,
2013-01-24 10:05:00,65.3,60.7,30.20,SSW,192,7.0,11.0,85,0.00,,,0.00,Wunderground v.1.15,2013-01-24 16:05:00,
2013-01-24 10:10:00,66.0,59.7,30.20,South,179,6.0,6.0,80,0.00,,,0.00,Wunderground v.1.15,2013-01-24 16:10:00,
2013-01-24 10:20:00,66.9,59.8,30.20,SSW,206,5.0,7.0,78,0.00,,,0.00,Wunderground v.1.15,2013-01-24 16:20:00,
2013-01-24 10:25:00,67.6,59.8,30.19,SSW,203,6.0,11.0,76,0.00,,,0.00,Wunderground v.1.15,2013-01-24 16:25:00,
2013-01-24 10:35:00,68.3,60.1,30.19,SSW,209,7.0,12.0,75,0.00,,,0.00,Wunderground v.1.15,2013-01-24 16:35:00,
2013-01-24 10:40:00,68.4,59.8,30.19,WSW,257,6.0,11.0,74,0.00,,,0.00,Wunderground v.1.15,2013-01-24 16:40:00,
2013-01-24 10:50:00,69.8,60.0,30.18,South,181,6.0,6.0,71,0.00,,,0.00,Wunderground v.1.15,2013-01-24 16:50:00,
2013-01-24 10:55:00,70.3,60.1,30.18,SSW,213,6.0,6.0,70,0.00,,,0.00,Wunderground v.1.15,2013-01-24 16:55:00,
2013-01-24 11:05:00,70.9,60.2,30.18,SSW,203,5.0,8.0,69,0.00,,,0.00,Wunderground v.1.15,2013-01-24 17:05:00,
2013-01-24 11:10:00,71.8,60.2,30.18,SW,217,4.0,12.0,67,0.00,,,0.00,Wunderground v.1.15,2013-01-24 17:10:00,
2013-01-24 11:20:00,72.7,60.3,30.17,SSW,200,7.0,7.0,65,0.00,,,0.00,Wunderground v.1.15,2013-01-24 17:20:00,
2013-01-24 11:25:00,73.2,60.3,30.17,SSW,200,7.0,7.0,64,0.00,,,0.00,Wunderground v.1.15,2013-01-24 17:25:00,
2013-01-24 11:35:00,73.7,59.9,30.17,SSW,199,7.0,14.0,62,0.00,,,0.00,Wunderground v.1.15,2013-01-24 17:35:00,
2013-01-24 11:40:00,73.7,60.3,30.16,SW,232,6.0,7.0,63,0.00,,,0.00,Wunderground v.1.15,2013-01-24 17:40:00,
2013-01-24 11:50:00,73.9,60.1,30.16,SW,223,6.0,6.0,62,0.00,,,0.00,Wunderground v.1.15,2013-01-24 17:50:00,
2013-01-24 11:55:00,74.2,59.9,30.16,SW,229,7.0,7.0,61,0.00,,,0.00,Wunderground v.1.15,2013-01-24 17:55:00,
2013-01-24 12:05:00,75.6,60.3,30.15,SSW,208,6.0,12.0,59,0.00,,,0.00,Wunderground v.1.15,2013-01-24 18:05:00,
2013-01-24 12:10:00,75.8,60.4,30.15,SW,216,6.0,6.0,59,0.00,,,0.00,Wunderground v.1.15,2013-01-24 18:10:00,
2013-01-24 12:20:00,76.3,59.9,30.14,SSW,200,6.0,8.0,57,0.00,,,0.00,Wunderground v.1.15,2013-01-24 18:20:00,
2013-01-24 12:25:00,76.3,60.4,30.14,SSW,208,7.0,8.0,58,0.00,,,0.00,Wunderground v.1.15,2013-01-24 18:25:00,
2013-01-24 12:35:00,76.3,60.4,30.13,SSW,208,5.0,7.0,58,0.00,,,0.00,Wunderground v.1.15,2013-01-24 18:35:00,
2013-01-24 12:40:00,76.1,60.2,30.13,SSW,209,5.0,7.0,58,0.00,,,0.00,Wunderground v.1.15,2013-01-24 18:40:00,
2013-01-24 12:50:00,76.5,59.6,30.12,South,179,6.0,8.0,56,0.00,,,0.00,Wunderground v.1.15,2013-01-24 18:50:00,
2013-01-24 12:55:00,76.7,59.8,30.11,WSW,237,7.0,8.0,56,0.00,,,0.00,Wunderground v.1.15,2013-01-24 18:55:00,
2013-01-24 13:05:00,76.1,59.8,30.11,South,191,6.0,10.0,57,0.00,,,0.00,Wunderground v.1.15,2013-01-24 19:05:00,
2013-01-24 13:10:00,76.7,60.3,30.11,South,171,5.0,7.0,57,0.00,,,0.00,Wunderground v.1.15,2013-01-24 19:10:00,
2013-01-24 13:20:00,77.4,60.0,30.10,South,172,7.0,7.0,55,0.00,,,0.00,Wunderground v.1.15,2013-01-24 19:20:00,
2013-01-24 13:25:00,77.7,60.2,30.10,SW,229,7.0,7.0,55,0.00,,,0.00,Wunderground v.1.15,2013-01-24 19:25:00,
2013-01-24 13:35:00,77.7,59.7,30.09,SSW,212,6.0,7.0,54,0.00,,,0.00,Wunderground v.1.15,2013-01-24 19:35:00,
2013-01-24 13:41:00,77.7,60.2,30.09,SE,137,6.0,10.0,55,0.00,,,0.00,Wunderground v.1.15,2013-01-24 19:41:00,
2013-01-24 13:50:00,77.9,59.4,30.09,South,186,7.0,7.0,53,0.00,,,0.00,Wunderground v.1.15,2013-01-24 19:50:00,
2013-01-24 13:55:00,77.6,59.6,30.08,SW,223,6.0,7.0,54,0.00,,,0.00,Wunderground v.1.15,2013-01-24 19:55:00,
2013-01-24 14:05:00,78.1,59.6,30.08,SW,217,6.0,6.0,53,0.00,,,0.00,Wunderground v.1.15,2013-01-24 20:05:00,
2013-01-24 14:10:00,78.3,58.7,30.08,SSE,167,6.0,6.0,51,0.00,,,0.00,Wunderground v.1.15,2013-01-24 20:10:00,
2013-01-24 14:20:00,76.8,58.4,30.08,SSW,193,6.0,6.0,53,0.00,,,0.00,Wunderground v.1.15,2013-01-24 20:20:00,
2013-01-24 14:25:00,76.1,58.8,30.08,SSW,200,6.0,6.0,55,0.00,,,0.00,Wunderground v.1.15,2013-01-24 20:25:00,
2013-01-24 14:35:00,75.8,58.5,30.08,SSE,157,4.0,5.0,55,0.00,,,0.00,Wunderground v.1.15,2013-01-24 20:35:00,
2013-01-24 14:40:00,76.1,59.3,30.07,South,182,3.0,3.0,56,0.00,,,0.00,Wunderground v.1.15,2013-01-24 20:40:00,
2013-01-24 14:50:00,77.0,58.6,30.07,South,184,6.0,6.0,53,0.00,,,0.00,Wunderground v.1.15,2013-01-24 20:50:00,
2013-01-24 14:55:00,77.4,58.4,30.07,SSW,198,6.0,8.0,52,0.00,,,0.00,Wunderground v.1.15,2013-01-24 20:55:00,
2013-01-24 15:05:00,77.4,58.4,30.06,South,174,7.0,7.0,52,0.00,,,0.00,Wunderground v.1.15,2013-01-24 21:05:00,
2013-01-24 15:10:00,77.2,57.7,30.06,South,179,7.0,7.0,51,0.00,,,0.00,Wunderground v.1.15,2013-01-24 21:10:00,
2013-01-24 15:20:00,76.7,58.3,30.06,South,184,8.0,8.0,53,0.00,,,0.00,Wunderground v.1.15,2013-01-24 21:20:00,
2013-01-24 15:25:00,76.7,58.3,30.06,SSW,193,6.0,8.0,53,0.00,,,0.00,Wunderground v.1.15,2013-01-24 21:25:00,
2013-01-24 15:35:00,76.8,58.9,30.06,SW,219,4.0,12.0,54,0.00,,,0.00,Wunderground v.1.15,2013-01-24 21:35:00,
2013-01-24 15:40:00,76.5,58.1,30.06,South,189,5.0,10.0,53,0.00,,,0.00,Wunderground v.1.15,2013-01-24 21:40:00,
2013-01-24 15:50:00,76.5,58.1,30.06,South,186,6.0,7.0,53,0.00,,,0.00,Wunderground v.1.15,2013-01-24 21:50:00,
2013-01-24 15:55:00,76.1,57.7,30.06,South,174,7.0,12.0,53,0.00,,,0.00,Wunderground v.1.15,2013-01-24 21:55:00,
2013-01-24 16:05:00,75.3,58.5,30.05,South,182,5.0,13.0,56,0.00,,,0.00,Wunderground v.1.15,2013-01-24 22:05:00,
2013-01-24 16:10:00,74.7,58.0,30.06,South,186,5.0,11.0,56,0.00,,,0.00,Wunderground v.1.15,2013-01-24 22:10:00,
2013-01-24 16:20:00,74.2,58.0,30.05,South,189,5.0,5.0,57,0.00,,,0.00,Wunderground v.1.15,2013-01-24 22:20:00,
2013-01-24 16:25:00,74.0,57.8,30.05,SSW,198,5.0,10.0,57,0.00,,,0.00,Wunderground v.1.15,2013-01-24 22:25:00,
2013-01-24 16:35:00,73.7,58.0,30.05,South,169,6.0,6.0,58,0.00,,,0.00,Wunderground v.1.15,2013-01-24 22:35:00,
2013-01-24 16:40:00,73.3,58.1,30.05,SSE,168,5.0,5.0,59,0.00,,,0.00,Wunderground v.1.15,2013-01-24 22:40:00,
2013-01-24 16:50:00,73.0,57.8,30.05,South,188,4.0,5.0,59,0.00,,,0.00,Wunderground v.1.15,2013-01-24 22:50:00,
2013-01-24 16:55:00,73.0,57.3,30.05,South,169,5.0,5.0,58,0.00,,,0.00,Wunderground v.1.15,2013-01-24 22:55:00,
2013-01-24 17:05:00,72.5,57.4,30.05,SSW,195,5.0,5.0,59,0.00,,,0.00,Wunderground v.1.15,2013-01-24 23:05:00,
2013-01-24 17:10:00,72.3,57.6,30.05,SSW,208,5.0,7.0,60,0.00,,,0.00,Wunderground v.1.15,2013-01-24 23:10:00,
2013-01-24 17:20:00,72.0,57.4,30.05,South,178,4.0,4.0,60,0.00,,,0.00,Wunderground v.1.15,2013-01-24 23:20:00,
2013-01-24 17:25:00,71.8,57.6,30.05,South,179,4.0,4.0,61,0.00,,,0.00,Wunderground v.1.15,2013-01-24 23:25:00,
2013-01-24 17:35:00,71.3,57.6,30.05,South,188,3.0,5.0,62,0.00,,,0.00,Wunderground v.1.15,2013-01-24 23:35:00,
2013-01-24 17:40:00,70.9,57.2,30.05,SSW,193,4.0,4.0,62,0.00,,,0.00,Wunderground v.1.15,2013-01-24 23:40:00,
2013-01-24 17:50:00,70.3,57.5,30.05,SSW,193,1.0,1.0,64,0.00,,,0.00,Wunderground v.1.15,2013-01-24 23:50:00,
2013-01-24 17:55:00,69.9,57.6,30.05,SSW,192,2.0,2.0,65,0.00,,,0.00,Wunderground v.1.15,2013-01-24 23:55:00,
2013-01-24 18:05:00,69.3,58.3,30.05,SSW,192,2.0,7.0,68,0.00,,,0.00,Wunderground v.1.15,2013-01-25 00:05:00,
2013-01-24 18:10:00,68.9,58.3,30.05,South,191,1.0,1.0,69,0.00,,,0.00,Wunderground v.1.15,2013-01-25 00:10:00,
2013-01-24 18:20:00,68.3,58.5,30.06,South,184,2.0,2.0,71,0.00,,,0.00,Wunderground v.1.15,2013-01-25 00:20:00,
2013-01-24 18:25:00,68.1,58.3,30.06,South,182,2.0,2.0,71,0.00,,,0.00,Wunderground v.1.15,2013-01-25 00:25:00,
2013-01-24 18:35:00,67.6,58.6,30.06,South,185,2.0,2.0,73,0.00,,,0.00,Wunderground v.1.15,2013-01-25 00:35:00,
2013-01-24 18:40:00,67.3,58.3,30.06,SSW,193,2.0,2.0,73,0.00,,,0.00,Wunderground v.1.15,2013-01-25 00:40:00,
2013-01-24 18:50:00,66.8,58.2,30.06,SSW,193,1.0,1.0,74,0.00,,,0.00,Wunderground v.1.15,2013-01-25 00:50:00,
2013-01-24 18:55:00,66.6,58.4,30.06,South,191,1.0,1.0,75,0.00,,,0.00,Wunderground v.1.15,2013-01-25 00:55:00,
2013-01-24 19:05:00,66.1,58.3,30.06,South,191,1.0,2.0,76,0.00,,,0.00,Wunderground v.1.15,2013-01-25 01:05:00,
2013-01-24 19:10:00,65.8,58.0,30.06,South,191,0.0,0.0,76,0.00,,,0.00,Wunderground v.1.15,2013-01-25 01:10:00,
2013-01-24 19:20:00,65.2,57.8,30.07,South,191,1.0,1.0,77,0.00,,,0.00,Wunderground v.1.15,2013-01-25 01:20:00,
2013-01-24 19:25:00,64.8,57.8,30.07,South,191,1.0,1.0,78,0.00,,,0.00,Wunderground v.1.15,2013-01-25 01:25:00,
2013-01-24 19:35:00,64.5,58.2,30.07,South,191,1.0,1.0,80,0.00,,,0.00,Wunderground v.1.15,2013-01-25 01:35:00,
2013-01-24 19:40:00,64.3,58.0,30.07,South,191,1.0,1.0,80,0.00,,,0.00,Wunderground v.1.15,2013-01-25 01:40:00,
2013-01-24 19:50:00,64.0,57.7,30.08,South,191,0.0,0.0,80,0.00,,,0.00,Wunderground v.1.15,2013-01-25 01:50:00,
2013-01-24 19:55:00,63.9,58.0,30.08,South,191,0.0,0.0,81,0.00,,,0.00,Wunderground v.1.15,2013-01-25 01:55:00,
2013-01-24 20:05:00,63.4,57.8,30.08,South,191,0.0,0.0,82,0.00,,,0.00,Wunderground v.1.15,2013-01-25 02:05:00,
2013-01-24 20:10:00,63.2,57.6,30.08,South,191,0.0,0.0,82,0.00,,,0.00,Wunderground v.1.15,2013-01-25 02:10:00,
2013-01-24 20:20:00,63.1,57.9,30.08,South,191,0.0,0.0,83,0.00,,,0.00,Wunderground v.1.15,2013-01-25 02:20:00,
2013-01-24 20:25:00,62.9,57.7,30.08,South,191,1.0,1.0,83,0.00,,,0.00,Wunderground v.1.15,2013-01-25 02:25:00,
2013-01-24 20:35:00,62.9,58.0,30.08,South,191,0.0,0.0,84,0.00,,,0.00,Wunderground v.1.15,2013-01-25 02:35:00,
2013-01-24 20:40:00,62.6,57.4,30.08,South,191,0.0,0.0,83,0.00,,,0.00,Wunderground v.1.15,2013-01-25 02:40:00,
2013-01-24 20:50:00,62.4,57.5,30.08,South,191,0.0,0.0,84,0.00,,,0.00,Wunderground v.1.15,2013-01-25 02:50:00,
2013-01-24 20:55:00,62.4,57.8,30.08,South,191,1.0,1.0,85,0.00,,,0.00,Wunderground v.1.15,2013-01-25 02:55:00,
2013-01-24 21:05:00,62.3,57.7,30.08,South,191,1.0,1.0,85,0.00,,,0.00,Wunderground v.1.15,2013-01-25 03:05:00,
2013-01-24 21:10:00,62.3,57.4,30.08,South,191,0.0,0.0,84,0.00,,,0.00,Wunderground v.1.15,2013-01-25 03:10:00,
2013-01-24 21:20:00,62.4,57.5,30.08,South,191,1.0,1.0,84,0.00,,,0.00,Wunderground v.1.15,2013-01-25 03:20:00,
2013-01-24 21:25:00,62.4,57.5,30.08,South,191,1.0,1.0,84,0.00,,,0.00,Wunderground v.1.15,2013-01-25 03:25:00,
2013-01-24 21:35:00,62.4,57.2,30.08,South,191,2.0,2.0,83,0.00,,,0.00,Wunderground v.1.15,2013-01-25 03:35:00,
2013-01-24 21:40:00,62.6,57.4,30.08,South,189,1.0,1.0,83,0.00,,,0.00,Wunderground v.1.15,2013-01-25 03:40:00,
2013-01-24 21:50:00,62.6,57.0,30.08,South,191,2.0,2.0,82,0.00,,,0.00,Wunderground v.1.15,2013-01-25 03:50:00,
2013-01-24 21:55:00,62.6,56.7,30.08,South,186,3.0,3.0,81,0.00,,,0.00,Wunderground v.1.15,2013-01-25 03:55:00,
2013-01-24 22:05:00,62.6,56.3,30.08,South,188,1.0,2.0,80,0.00,,,0.00,Wunderground v.1.15,2013-01-25 04:05:00,
2013-01-24 22:10:00,62.6,56.3,30.08,South,186,1.0,1.0,80,0.00,,,0.00,Wunderground v.1.15,2013-01-25 04:10:00,
2013-01-24 22:20:00,62.6,56.3,30.08,South,181,3.0,3.0,80,0.00,,,0.00,Wunderground v.1.15,2013-01-25 04:20:00,
2013-01-24 22:25:00,62.7,56.4,30.08,SSE,165,3.0,3.0,80,0.00,,,0.00,Wunderground v.1.15,2013-01-25 04:25:00,
2013-01-24 22:35:00,62.9,56.6,30.08,South,176,2.0,6.0,80,0.00,,,0.00,Wunderground v.1.15,2013-01-25 04:35:00,
2013-01-24 22:40:00,62.7,56.4,30.08,South,185,3.0,6.0,80,0.00,,,0.00,Wunderground v.1.15,2013-01-25 04:40:00,
2013-01-24 22:50:00,62.6,56.7,30.08,South,184,3.0,3.0,81,0.00,,,0.00,Wunderground v.1.15,2013-01-25 04:50:00,
2013-01-24 22:55:00,62.4,56.5,30.08,SSE,164,3.0,3.0,81,0.00,,,0.00,Wunderground v.1.15,2013-01-25 04:55:00,
2013-01-24 23:05:00,62.1,56.9,30.07,SSE,168,3.0,3.0,83,0.00,,,0.00,Wunderground v.1.15,2013-01-25 05:05:00,
2013-01-24 23:10:00,62.1,57.2,30.07,SSE,168,3.0,3.0,84,0.00,,,0.00,Wunderground v.1.15,2013-01-25 05:10:00,
2013-01-24 23:20:00,62.0,57.4,30.07,South,181,3.0,7.0,85,0.00,,,0.00,Wunderground v.1.15,2013-01-25 05:20:00,
2013-01-24 23:25:00,61.8,57.2,30.07,South,182,3.0,7.0,85,0.00,,,0.00,Wunderground v.1.15,2013-01-25 05:25:00,
2013-01-24 23:35:00,61.6,57.4,30.07,South,179,3.0,3.0,86,0.00,,,0.00,Wunderground v.1.15,2013-01-25 05:35:00,
2013-01-24 23:40:00,61.6,57.7,30.07,South,179,3.0,5.0,87,0.00,,,0.00,Wunderground v.1.15,2013-01-25 05:40:00,
2013-01-24 23:50:00,61.5,57.9,30.07,South,189,3.0,3.0,88,0.00,,,0.00,Wunderground v.1.15,2013-01-25 05:50:00,
2013-01-24 23:55:00,61.5,57.9,30.07,South,189,4.0,4.0,88,0.00,,,0.00,Wunderground v.1.15,2013-01-25 05:55:00,